createdAt,value
2023-02-08T00:01:27.236Z,30.80
2023-02-08T00:03:53.913Z,43.83
2023-02-08T00:06:20.427Z,37.07
2023-02-08T00:08:46.941Z,41.97
2023-02-08T00:11:13.508Z,39.33
2023-02-08T00:13:42.209Z,36.43
2023-02-08T00:16:09.360Z,36.03
2023-02-08T00:18:35.862Z,42.17
2023-02-08T00:21:10.654Z,31.80
2023-02-08T00:23:37.361Z,39.50
2023-02-08T00:26:04.169Z,41.17
2023-02-08T00:28:30.951Z,37.37
2023-02-08T00:30:57.820Z,36.80
2023-02-08T00:33:24.516Z,37.27
2023-02-08T00:35:51.795Z,42.27
2023-02-08T00:38:18.281Z,33.37
2023-02-08T00:40:44.743Z,41.03
2023-02-08T00:43:11.742Z,38.17
2023-02-08T00:45:38.362Z,37.17
2023-02-08T00:48:04.813Z,42.00
2023-02-08T00:50:31.306Z,37.63
2023-02-08T00:52:59.606Z,40.93
2023-02-08T00:55:26.050Z,38.87
2023-02-08T00:57:52.478Z,39.97
2023-02-08T01:00:19.083Z,42.60
2023-02-08T01:02:45.576Z,42.43
2023-02-08T01:05:12.738Z,44.50
2023-02-08T01:07:39.450Z,40.07
2023-02-08T01:10:07.274Z,38.40
2023-02-08T01:12:33.710Z,40.80
2023-02-08T01:15:00.188Z,43.00
2023-02-08T01:17:26.714Z,44.13
2023-02-08T01:19:53.449Z,39.83
2023-02-08T01:22:19.963Z,43.43
2023-02-08T01:24:46.430Z,43.70
2023-02-08T01:27:12.988Z,37.47
2023-02-08T01:29:39.435Z,39.63
2023-02-08T01:32:06.098Z,45.03
2023-02-08T01:34:32.585Z,34.60
2023-02-08T01:36:59.108Z,39.77
2023-02-08T01:39:25.600Z,36.13
2023-02-08T01:41:52.118Z,35.20
2023-02-08T01:44:18.562Z,35.57
2023-02-08T01:46:48.604Z,38.27
2023-02-08T01:49:20.541Z,34.77
2023-02-08T01:51:54.847Z,36.57
2023-02-08T01:54:24.129Z,37.33
2023-02-08T01:56:50.934Z,41.20
2023-02-08T01:59:22.827Z,44.50
2023-02-08T02:01:51.434Z,44.43
2023-02-08T02:04:18.057Z,40.50
2023-02-08T02:06:47.115Z,42.57
2023-02-08T02:09:36.245Z,43.47
2023-02-08T02:12:02.715Z,46.23
2023-02-08T02:14:29.303Z,37.93
2023-02-08T02:16:55.868Z,53.40
2023-02-08T02:19:30.882Z,47.07
2023-02-08T02:22:10.905Z,46.87
2023-02-08T02:25:09.533Z,49.37
2023-02-08T02:27:45.649Z,43.73
2023-02-08T02:30:37.312Z,50.23
2023-02-08T02:33:31.910Z,43.37
2023-02-08T02:36:35.383Z,56.47
2023-02-08T02:39:23.614Z,81.90
2023-02-08T02:42:19.971Z,45.13
2023-02-08T02:44:58.522Z,45.50
2023-02-08T02:47:31.729Z,46.50
2023-02-08T02:50:10.160Z,38.30
2023-02-08T02:52:48.686Z,48.20
2023-02-08T02:55:17.414Z,42.33
2023-02-08T02:57:45.090Z,46.83
2023-02-08T03:00:13.930Z,40.80
2023-02-08T03:02:40.421Z,47.13
2023-02-08T03:05:09.639Z,40.73
2023-02-08T03:07:50.433Z,38.90
2023-02-08T03:10:22.780Z,37.87
2023-02-08T03:12:59.589Z,39.93
2023-02-08T03:15:34.666Z,33.67
2023-02-08T03:18:13.018Z,38.67
2023-02-08T03:20:50.076Z,36.90
2023-02-08T03:23:30.548Z,41.57
2023-02-08T03:26:08.280Z,34.80
2023-02-08T03:29:03.278Z,33.80
2023-02-08T03:31:40.061Z,36.70
2023-02-08T03:34:12.908Z,38.87
2023-02-08T03:37:31.025Z,38.23
2023-02-08T03:40:36.327Z,36.03
2023-02-08T03:43:08.843Z,41.67
2023-02-08T03:45:42.392Z,33.40
2023-02-08T03:48:11.017Z,34.60
2023-02-08T03:50:39.941Z,36.00
2023-02-08T03:53:07.735Z,35.50
2023-02-08T03:55:35.803Z,33.73
2023-02-08T03:58:19.762Z,39.00
2023-02-08T04:00:52.277Z,35.33
2023-02-08T04:03:27.462Z,31.80
2023-02-08T04:05:54.460Z,34.17
2023-02-08T04:08:21.899Z,37.17
2023-02-08T04:10:48.951Z,40.90
2023-02-08T04:13:15.598Z,36.63
2023-02-08T04:15:42.140Z,36.53
2023-02-08T04:18:08.702Z,36.63
2023-02-08T04:20:35.195Z,36.50
2023-02-08T04:23:01.668Z,38.80
2023-02-08T04:25:28.497Z,36.60
2023-02-08T04:27:55.035Z,43.67
2023-02-08T04:30:21.505Z,38.67
2023-02-08T04:32:48.112Z,32.30
2023-02-08T04:35:14.719Z,36.83
2023-02-08T04:37:41.179Z,36.07
2023-02-08T04:40:08.113Z,40.30
2023-02-08T04:42:35.249Z,39.47
2023-02-08T04:45:01.744Z,38.67
2023-02-08T04:47:28.399Z,41.87
2023-02-08T04:49:54.825Z,39.23
2023-02-08T04:52:21.269Z,37.47
2023-02-08T04:54:47.701Z,37.53
2023-02-08T04:57:14.332Z,38.93
2023-02-08T04:59:40.854Z,33.50
2023-02-08T05:02:07.342Z,36.97
2023-02-08T05:04:34.093Z,39.20
2023-02-08T05:07:00.536Z,34.47
2023-02-08T05:09:27.075Z,35.40
2023-02-08T05:11:53.518Z,43.27
2023-02-08T05:14:20.064Z,34.63
2023-02-08T05:16:46.545Z,39.27
2023-02-08T05:19:13.467Z,39.33
2023-02-08T05:21:39.971Z,38.33
2023-02-08T05:24:07.191Z,39.97
2023-02-08T05:26:33.665Z,37.37
2023-02-08T05:29:00.165Z,46.33
2023-02-08T05:31:26.941Z,42.80
2023-02-08T05:33:53.658Z,40.23
2023-02-08T05:36:23.188Z,37.47
2023-02-08T05:38:50.012Z,37.13
2023-02-08T05:41:17.191Z,38.33
2023-02-08T05:43:43.642Z,54.10
2023-02-08T05:46:10.096Z,42.40
2023-02-08T05:48:36.758Z,40.00
2023-02-08T05:51:03.616Z,43.90
2023-02-08T05:53:30.520Z,42.67
2023-02-08T05:56:00.128Z,39.63
2023-02-08T05:58:26.943Z,41.77
2023-02-08T06:00:53.528Z,41.97
2023-02-08T06:03:20.092Z,44.63
2023-02-08T06:05:46.678Z,38.33
2023-02-08T06:08:13.237Z,42.43
2023-02-08T06:10:40.084Z,44.63
2023-02-08T06:13:06.760Z,46.87
2023-02-08T06:15:33.229Z,47.10
2023-02-08T06:17:59.791Z,43.93
2023-02-08T06:20:26.470Z,46.73
2023-02-08T06:22:53.138Z,51.47
2023-02-08T06:25:19.651Z,50.27
2023-02-08T06:27:46.325Z,49.90
2023-02-08T06:30:13.372Z,48.23
2023-02-08T06:32:39.906Z,50.87
2023-02-08T06:35:07.072Z,51.67
2023-02-08T06:37:33.950Z,47.50
2023-02-08T06:40:01.966Z,53.27
2023-02-08T06:42:28.584Z,47.37
2023-02-08T06:44:56.076Z,46.93
2023-02-08T06:47:23.308Z,47.17
2023-02-08T06:49:50.246Z,52.70
2023-02-08T06:52:16.958Z,53.90
2023-02-08T06:54:43.424Z,49.33
2023-02-08T06:57:12.914Z,54.33
2023-02-08T06:59:40.314Z,51.50
2023-02-08T07:02:14.036Z,53.93
2023-02-08T07:04:40.621Z,56.60
2023-02-08T07:07:07.595Z,57.00
2023-02-08T07:09:35.208Z,57.10
2023-02-08T07:12:05.328Z,57.00
2023-02-08T07:14:37.163Z,53.73
2023-02-08T07:17:03.840Z,52.40
2023-02-08T07:19:30.525Z,57.87
2023-02-08T07:21:57.443Z,52.50
2023-02-08T07:24:24.156Z,55.57
2023-02-08T07:26:50.731Z,63.77
2023-02-08T07:29:17.245Z,58.80
2023-02-08T07:31:43.752Z,57.80
2023-02-08T07:34:10.256Z,62.43
2023-02-08T07:36:36.844Z,56.60
2023-02-08T07:39:03.540Z,62.27
2023-02-08T07:41:30.076Z,53.73
2023-02-08T07:43:56.510Z,49.03
2023-02-08T07:46:23.715Z,42.60
2023-02-08T07:48:50.329Z,47.30
2023-02-08T07:51:16.976Z,43.37
2023-02-08T07:53:43.509Z,37.03
2023-02-08T07:56:10.476Z,37.97
2023-02-08T07:58:37.506Z,37.13
2023-02-08T08:01:19.507Z,42.93
2023-02-08T08:03:48.749Z,40.20
2023-02-08T08:06:15.287Z,39.93
2023-02-08T08:08:42.354Z,41.13
2023-02-08T08:11:08.955Z,37.67
2023-02-08T08:13:35.409Z,39.67
2023-02-08T08:16:01.986Z,40.83
2023-02-08T08:18:29.247Z,38.33
2023-02-08T08:20:55.726Z,36.23
2023-02-08T08:23:23.899Z,35.73
2023-02-08T08:25:50.432Z,47.53
2023-02-08T08:28:17.137Z,44.40
2023-02-08T08:30:44.687Z,48.97
2023-02-08T08:33:14.070Z,42.60
2023-02-08T08:35:41.172Z,42.87
2023-02-08T08:38:07.634Z,48.50
2023-02-08T08:40:34.251Z,56.53
2023-02-08T08:43:00.761Z,48.60
2023-02-08T08:45:27.401Z,53.30
2023-02-08T08:47:54.028Z,54.33
2023-02-08T08:50:20.492Z,50.40
2023-02-08T08:52:46.932Z,51.47
2023-02-08T08:55:13.519Z,52.67
2023-02-08T08:57:39.979Z,54.97
2023-02-08T09:00:06.799Z,53.03
2023-02-08T09:02:33.319Z,59.67
2023-02-08T09:05:00.312Z,48.67
2023-02-08T09:07:26.927Z,56.23
2023-02-08T09:09:53.393Z,56.57
2023-02-08T09:12:19.889Z,61.20
2023-02-08T09:14:46.412Z,57.40
2023-02-08T09:17:13.039Z,56.57
2023-02-08T09:19:39.592Z,51.70
2023-02-08T09:22:07.351Z,55.83
2023-02-08T09:24:34.504Z,48.30
2023-02-08T09:27:01.335Z,50.37
2023-02-08T09:29:30.159Z,46.83
2023-02-08T09:31:57.266Z,41.07
2023-02-08T09:34:24.247Z,44.53
2023-02-08T09:36:50.749Z,49.20
2023-02-08T09:39:20.378Z,50.20
2023-02-08T09:42:08.850Z,47.47
2023-02-08T09:44:47.222Z,51.43
2023-02-08T09:47:29.514Z,50.83
2023-02-08T09:50:04.011Z,52.80
2023-02-08T09:52:39.188Z,49.93
2023-02-08T09:55:29.096Z,50.23
2023-02-08T09:57:58.354Z,51.50
2023-02-08T10:00:51.647Z,48.13
2023-02-08T10:03:30.282Z,51.30
2023-02-08T10:05:57.201Z,47.77
2023-02-08T10:08:34.367Z,48.83
2023-02-08T10:11:13.275Z,48.23
2023-02-08T10:13:45.201Z,53.30
2023-02-08T10:16:49.089Z,58.83
2023-02-08T10:19:38.211Z,51.30
2023-02-08T10:22:16.405Z,45.07
2023-02-08T10:25:04.460Z,39.73
2023-02-08T10:27:54.402Z,49.07
2023-02-08T10:30:31.611Z,54.70
2023-02-08T10:33:02.013Z,47.20
2023-02-08T10:35:37.257Z,48.83
2023-02-08T10:38:23.394Z,44.47
2023-02-08T10:40:56.790Z,51.80
2023-02-08T10:43:37.238Z,48.43
2023-02-08T10:46:09.882Z,43.23
2023-02-08T10:48:46.978Z,43.60
2023-02-08T10:51:17.894Z,40.67
2023-02-08T10:53:44.854Z,42.77
2023-02-08T10:56:29.718Z,49.90
2023-02-08T10:59:00.501Z,38.60
2023-02-08T11:01:27.931Z,46.10
2023-02-08T11:04:12.078Z,48.13
2023-02-08T11:06:40.622Z,52.53
2023-02-08T11:09:13.154Z,42.47
2023-02-08T11:11:41.161Z,39.10
2023-02-08T11:14:19.525Z,39.63
2023-02-08T11:16:54.147Z,37.93
2023-02-08T11:19:35.366Z,41.53
2023-02-08T11:22:05.736Z,41.23
2023-02-08T11:24:40.027Z,47.40
2023-02-08T11:27:28.866Z,44.60
2023-02-08T11:30:15.823Z,43.10
2023-02-08T11:32:44.255Z,48.93
2023-02-08T11:35:23.747Z,57.30
2023-02-08T11:37:54.667Z,28.53
2023-02-08T11:40:25.002Z,36.20
2023-02-08T11:42:51.729Z,37.90
2023-02-08T11:45:36.314Z,35.63
2023-02-08T11:48:05.014Z,27.50
2023-02-08T11:50:34.811Z,15.13
2023-02-08T11:53:06.522Z,10.20
2023-02-08T11:55:34.554Z,13.97
2023-02-08T11:58:09.536Z,10.20
2023-02-08T12:00:37.393Z,14.97
2023-02-08T12:03:06.885Z,21.27
2023-02-08T12:05:49.870Z,17.57
2023-02-08T12:08:29.237Z,18.27
2023-02-08T12:11:14.190Z,20.23
2023-02-08T12:13:46.764Z,18.77
2023-02-08T12:16:22.045Z,20.60
2023-02-08T12:18:52.734Z,17.97
2023-02-08T12:21:23.253Z,15.63
2023-02-08T12:23:55.847Z,21.73
2023-02-08T12:26:37.495Z,15.97
2023-02-08T12:29:48.009Z,17.60
2023-02-08T12:32:20.732Z,15.87
2023-02-08T12:35:33.054Z,14.90
2023-02-08T12:38:57.209Z,12.27
2023-02-08T12:41:36.233Z,8.60
2023-02-08T12:44:08.756Z,8.13
2023-02-08T12:46:49.069Z,9.47
2023-02-08T12:49:41.871Z,8.00
2023-02-08T12:52:24.303Z,10.63
2023-02-08T12:54:58.205Z,12.77
2023-02-08T12:57:27.105Z,15.07
2023-02-08T13:00:23.798Z,10.50
2023-02-08T13:03:16.425Z,8.17
2023-02-08T13:06:01.265Z,7.70
2023-02-08T13:08:40.677Z,10.13
2023-02-08T13:11:37.237Z,7.03
2023-02-08T13:14:13.507Z,8.87
2023-02-08T13:16:46.040Z,11.10
2023-02-08T13:19:33.651Z,7.63
2023-02-08T13:22:00.685Z,6.57
2023-02-08T13:24:41.866Z,8.60
2023-02-08T13:27:16.159Z,10.17
2023-02-08T13:29:47.144Z,9.10
2023-02-08T13:32:22.417Z,9.07
2023-02-08T13:34:53.130Z,10.00
2023-02-08T13:37:30.262Z,11.67
2023-02-08T13:40:17.392Z,9.17
2023-02-08T13:42:49.144Z,10.47
2023-02-08T13:45:39.929Z,10.80
2023-02-08T13:48:08.652Z,9.53
2023-02-08T13:50:35.307Z,9.27
2023-02-08T13:53:02.965Z,9.03
2023-02-08T13:55:33.571Z,10.87
2023-02-08T13:58:16.196Z,19.53
2023-02-08T14:01:08.824Z,10.93
2023-02-08T14:03:35.482Z,15.13
2023-02-08T14:06:05.725Z,10.07
2023-02-08T14:09:07.123Z,12.33
2023-02-08T14:11:41.136Z,14.63
2023-02-08T14:14:17.641Z,15.23
2023-02-08T14:17:20.175Z,11.03
2023-02-08T14:19:57.227Z,19.27
2023-02-08T14:22:23.821Z,13.83
2023-02-08T14:25:01.858Z,15.53
2023-02-08T14:27:53.588Z,11.27
2023-02-08T14:30:22.234Z,13.67
2023-02-08T14:32:51.492Z,12.03
2023-02-08T14:35:22.887Z,15.97
2023-02-08T14:37:52.172Z,15.30
2023-02-08T14:40:22.462Z,17.93
2023-02-08T14:43:03.911Z,18.53
2023-02-08T14:45:39.209Z,21.90
2023-02-08T14:48:11.990Z,25.03
2023-02-08T14:50:51.187Z,24.10
2023-02-08T14:53:52.409Z,15.13
2023-02-08T14:56:31.601Z,19.53
2023-02-08T14:59:09.546Z,17.83
2023-02-08T15:01:44.943Z,18.53
2023-02-08T15:04:15.580Z,21.00
2023-02-08T15:07:40.868Z,16.23
2023-02-08T15:10:15.860Z,15.40
2023-02-08T15:12:45.697Z,15.57
2023-02-08T15:15:33.420Z,24.17
2023-02-08T15:18:01.657Z,18.67
2023-02-08T15:20:33.208Z,25.77
2023-02-08T15:23:07.219Z,16.50
2023-02-08T15:25:36.407Z,28.00
2023-02-08T15:28:15.058Z,16.83
2023-02-08T15:30:42.808Z,20.27
2023-02-08T15:33:14.573Z,21.23
2023-02-08T15:35:42.622Z,28.90
2023-02-08T15:38:27.676Z,19.90
2023-02-08T15:41:03.448Z,31.20
2023-02-08T15:43:30.507Z,40.03
2023-02-08T15:45:58.463Z,27.87
2023-02-08T15:48:25.890Z,27.73
2023-02-08T15:50:53.832Z,19.73
2023-02-08T15:53:20.835Z,30.40
2023-02-08T15:55:49.796Z,22.97
2023-02-08T15:58:28.569Z,27.97
2023-02-08T16:00:57.346Z,25.17
2023-02-08T16:03:24.683Z,28.33
2023-02-08T16:05:54.205Z,26.67
2023-02-08T16:08:23.682Z,26.30
2023-02-08T16:10:54.756Z,27.17
2023-02-08T16:13:27.701Z,30.00
2023-02-08T16:16:07.229Z,32.53
2023-02-08T16:18:46.067Z,32.10
2023-02-08T16:21:27.147Z,26.60
2023-02-08T16:23:56.669Z,24.40
2023-02-08T16:26:28.202Z,26.17
2023-02-08T16:29:00.749Z,27.83
2023-02-08T16:31:30.909Z,26.53
2023-02-08T16:34:13.054Z,26.27
2023-02-08T16:36:41.462Z,26.63
2023-02-08T16:39:13.842Z,36.77
2023-02-08T16:42:16.122Z,30.33
2023-02-08T16:44:59.183Z,25.20
2023-02-08T16:47:29.946Z,30.73
2023-02-08T16:49:56.507Z,28.40
2023-02-08T16:52:23.021Z,26.23
2023-02-08T16:54:49.539Z,22.93
2023-02-08T16:57:16.279Z,24.87
2023-02-08T16:59:42.894Z,24.80
2023-02-08T17:02:13.414Z,24.00
2023-02-08T17:04:40.372Z,24.90
2023-02-08T17:07:13.340Z,23.97
2023-02-08T17:09:42.252Z,26.73
2023-02-08T17:12:21.773Z,27.67
2023-02-08T17:14:48.625Z,31.77
2023-02-08T17:17:15.400Z,31.30
2023-02-08T17:19:44.409Z,31.87
2023-02-08T17:22:10.964Z,30.77
2023-02-08T17:24:39.214Z,32.30
2023-02-08T17:27:06.007Z,35.73
2023-02-08T17:29:32.599Z,30.77
2023-02-08T17:31:59.373Z,36.23
2023-02-08T17:34:25.889Z,32.43
2023-02-08T17:36:52.557Z,30.87
2023-02-08T17:39:19.192Z,31.60
2023-02-08T17:41:45.708Z,34.33
2023-02-08T17:44:15.207Z,32.00
2023-02-08T17:46:42.502Z,29.93
2023-02-08T17:49:09.109Z,29.87
2023-02-08T17:51:35.602Z,34.83
2023-02-08T17:54:05.422Z,37.07
2023-02-08T17:56:35.364Z,39.23
2023-02-08T17:59:04.240Z,31.73
2023-02-08T18:01:31.381Z,35.33
2023-02-08T18:03:59.428Z,32.37
2023-02-08T18:06:26.105Z,39.03
2023-02-08T18:08:54.599Z,35.40
2023-02-08T18:11:21.171Z,39.13
2023-02-08T18:13:49.328Z,40.17
2023-02-08T18:16:21.300Z,42.73
2023-02-08T18:18:47.963Z,44.73
2023-02-08T18:21:17.441Z,45.73
2023-02-08T18:23:44.456Z,43.90
2023-02-08T18:26:17.020Z,43.30
2023-02-08T18:28:44.794Z,48.63
2023-02-08T18:31:14.850Z,48.70
2023-02-08T18:33:42.828Z,46.53
2023-02-08T18:36:11.801Z,50.03
2023-02-08T18:38:45.569Z,46.73
2023-02-08T18:41:18.786Z,51.10
2023-02-08T18:43:45.792Z,51.13
2023-02-08T18:46:14.552Z,48.43
2023-02-08T18:48:41.595Z,55.50
2023-02-08T18:51:09.491Z,51.33
2023-02-08T18:53:38.994Z,47.60
2023-02-08T18:56:07.343Z,52.10
2023-02-08T18:58:34.591Z,44.67
2023-02-08T19:01:15.677Z,47.80
2023-02-08T19:03:43.149Z,49.43
2023-02-08T19:06:22.770Z,49.83
2023-02-08T19:08:51.613Z,49.00
2023-02-08T19:11:25.277Z,48.37
2023-02-08T19:13:52.491Z,44.73
2023-02-08T19:16:22.056Z,44.43
2023-02-08T19:18:49.202Z,48.30
2023-02-08T19:21:17.484Z,45.90
2023-02-08T19:23:48.216Z,56.33
2023-02-08T19:26:18.205Z,55.00
2023-02-08T19:28:44.683Z,58.40
2023-02-08T19:31:13.810Z,50.87
2023-02-08T19:33:42.239Z,49.67
2023-02-08T19:36:11.810Z,50.13
2023-02-08T19:38:38.427Z,50.53
2023-02-08T19:41:06.697Z,58.83
2023-02-08T19:43:33.757Z,47.37
2023-02-08T19:46:00.474Z,49.93
2023-02-08T19:48:27.164Z,46.47
2023-02-08T19:50:58.647Z,49.03
2023-02-08T19:53:25.874Z,48.43
2023-02-08T19:56:06.769Z,62.30
2023-02-08T19:58:34.447Z,49.87
2023-02-08T20:01:06.236Z,43.23
2023-02-08T20:03:32.766Z,53.53
2023-02-08T20:05:59.221Z,49.50
2023-02-08T20:08:27.384Z,50.30
2023-02-08T20:10:54.833Z,51.97
2023-02-08T20:13:21.804Z,57.63
2023-02-08T20:15:48.527Z,59.97
2023-02-08T20:18:16.297Z,58.93
2023-02-08T20:20:43.553Z,54.43
2023-02-08T20:23:21.761Z,56.30
2023-02-08T20:25:48.897Z,64.43
2023-02-08T20:28:15.501Z,56.77
2023-02-08T20:30:42.235Z,75.13
2023-02-08T20:33:08.786Z,64.93
2023-02-08T20:35:36.470Z,67.97
2023-02-08T20:38:03.221Z,80.67
2023-02-08T20:40:29.885Z,62.73
2023-02-08T20:42:56.414Z,64.37
2023-02-08T20:45:23.050Z,66.30
2023-02-08T20:47:49.562Z,66.17
2023-02-08T20:50:19.640Z,71.37
2023-02-08T20:52:47.289Z,69.77
2023-02-08T20:55:13.796Z,80.60
2023-02-08T20:57:40.593Z,78.83
2023-02-08T21:00:07.569Z,77.70
2023-02-08T21:02:34.167Z,81.60
2023-02-08T21:05:00.700Z,84.10
2023-02-08T21:07:27.235Z,88.00
2023-02-08T21:09:53.791Z,94.43
2023-02-08T21:12:20.325Z,80.43
2023-02-08T21:14:46.776Z,89.67
2023-02-08T21:17:13.246Z,87.33
2023-02-08T21:19:39.691Z,86.10
2023-02-08T21:22:06.367Z,79.83
2023-02-08T21:24:32.926Z,89.30
2023-02-08T21:26:59.721Z,79.73
2023-02-08T21:29:26.386Z,81.43
2023-02-08T21:31:54.404Z,77.20
2023-02-08T21:34:21.450Z,74.43
2023-02-08T21:36:48.246Z,72.23
2023-02-08T21:39:14.689Z,75.80
2023-02-08T21:41:41.166Z,70.73
2023-02-08T21:44:09.163Z,67.83
2023-02-08T21:46:35.889Z,71.87
2023-02-08T21:49:21.370Z,72.17
2023-02-08T21:52:06.348Z,68.00
2023-02-08T21:54:44.633Z,78.13
2023-02-08T21:57:18.945Z,73.30
2023-02-08T21:59:47.532Z,71.97
2023-02-08T22:02:16.786Z,70.60
2023-02-08T22:04:46.599Z,78.83
2023-02-08T22:07:13.728Z,86.47
2023-02-08T22:09:41.646Z,75.37
2023-02-08T22:12:14.502Z,80.97
2023-02-08T22:14:41.047Z,86.63
2023-02-08T22:17:07.543Z,78.87
2023-02-08T22:19:34.047Z,86.07
2023-02-08T22:22:02.232Z,83.40
2023-02-08T22:24:28.698Z,83.93
2023-02-08T22:26:55.707Z,77.30
2023-02-08T22:29:22.987Z,78.53
2023-02-08T22:31:49.610Z,76.83
2023-02-08T22:34:16.217Z,77.07
2023-02-08T22:36:42.676Z,77.43
2023-02-08T22:39:09.185Z,78.00
2023-02-08T22:41:35.941Z,81.60
2023-02-08T22:44:02.429Z,78.40
2023-02-08T22:46:29.099Z,77.00
2023-02-08T22:48:55.793Z,82.80
2023-02-08T22:51:23.557Z,72.50
2023-02-08T22:53:50.182Z,72.00
2023-02-08T22:56:18.175Z,86.57
2023-02-08T22:58:44.605Z,70.60
2023-02-08T23:01:15.718Z,85.77
2023-02-08T23:03:43.033Z,76.27
2023-02-08T23:06:10.874Z,71.10
2023-02-08T23:08:37.512Z,80.47
2023-02-08T23:11:05.844Z,80.63
2023-02-08T23:13:33.015Z,75.27
2023-02-08T23:15:59.679Z,85.67
2023-02-08T23:18:26.290Z,81.70
2023-02-08T23:20:54.439Z,85.30
2023-02-08T23:23:21.080Z,85.10
2023-02-08T23:25:47.914Z,82.70
2023-02-08T23:28:14.521Z,84.67
2023-02-08T23:30:42.411Z,80.10
2023-02-08T23:33:09.057Z,88.23
2023-02-08T23:35:35.556Z,86.57
2023-02-08T23:38:02.204Z,84.60
2023-02-08T23:40:28.755Z,86.17
2023-02-08T23:42:55.274Z,93.83
2023-02-08T23:45:22.734Z,93.63
2023-02-08T23:47:49.274Z,83.97
2023-02-08T23:50:15.818Z,87.73
2023-02-08T23:52:42.567Z,92.83
2023-02-08T23:55:09.346Z,94.97
2023-02-08T23:57:37.290Z,91.00
